createdAt,value
2018-12-01T00:00:24.172Z,6.50
2018-12-01T00:02:52.896Z,6.50
2018-12-01T00:05:21.578Z,6.50
2018-12-01T00:07:50.491Z,6.40
2018-12-01T00:10:19.208Z,6.30
2018-12-01T00:12:48.003Z,6.20
2018-12-01T00:15:24.699Z,6.20
2018-12-01T00:17:53.687Z,6.20
2018-12-01T00:20:24.521Z,6.20
2018-12-01T00:22:53.220Z,6.20
2018-12-01T00:25:21.968Z,6.20
2018-12-01T00:27:50.670Z,6.20
2018-12-01T00:30:20.121Z,6.20
2018-12-01T00:32:49.596Z,6.10
2018-12-01T00:35:18.383Z,6.10
2018-12-01T00:37:48.657Z,6.10
2018-12-01T00:40:18.191Z,6.10
2018-12-01T00:42:47.069Z,6.10
2018-12-01T00:45:18.475Z,6.00
2018-12-01T00:47:48.052Z,6.00
2018-12-01T00:50:18.623Z,6.00
2018-12-01T00:52:48.116Z,5.90
2018-12-01T00:55:17.739Z,5.90
2018-12-01T00:57:46.489Z,5.90
2018-12-01T01:00:19.662Z,5.90
2018-12-01T01:02:53.278Z,5.90
2018-12-01T01:05:23.037Z,5.90
2018-12-01T01:07:51.801Z,5.80
2018-12-01T01:10:21.278Z,5.80
2018-12-01T01:12:50.038Z,6.00
2018-12-01T01:15:18.759Z,5.70
2018-12-01T01:17:47.491Z,5.70
2018-12-01T01:20:18.280Z,5.70
2018-12-01T01:22:47.314Z,5.70
2018-12-01T01:25:16.476Z,5.60
2018-12-01T01:27:45.184Z,5.60
2018-12-01T01:30:16.696Z,5.60
2018-12-01T01:32:45.423Z,5.50
2018-12-01T01:35:14.203Z,5.50
2018-12-01T01:37:42.911Z,5.50
2018-12-01T01:40:16.454Z,5.40
2018-12-01T01:42:45.222Z,5.50
2018-12-01T01:45:16.800Z,5.60
2018-12-01T01:47:45.592Z,5.60
2018-12-01T01:50:18.549Z,5.70
2018-12-01T01:52:47.335Z,5.70
2018-12-01T01:55:16.064Z,5.70
2018-12-01T01:57:44.771Z,5.80
2018-12-01T02:00:18.507Z,5.90
2018-12-01T02:02:48.370Z,5.90
2018-12-01T02:05:17.891Z,6.00
2018-12-01T02:07:46.576Z,6.10
2018-12-01T02:10:16.105Z,6.10
2018-12-01T02:12:44.852Z,6.10
2018-12-01T02:15:14.151Z,6.20
2018-12-01T02:17:42.839Z,6.30
2018-12-01T02:20:14.238Z,6.30
2018-12-01T02:22:42.978Z,6.40
2018-12-01T02:25:13.613Z,6.40
2018-12-01T02:27:42.396Z,6.40
2018-12-01T02:30:13.010Z,6.40
2018-12-01T02:32:41.712Z,6.40
2018-12-01T02:35:27.245Z,6.40
2018-12-01T02:37:55.940Z,6.40
2018-12-01T02:40:24.612Z,6.40
2018-12-01T02:42:53.297Z,6.40
2018-12-01T02:45:32.891Z,6.30
2018-12-01T02:48:01.571Z,6.30
2018-12-01T02:50:30.333Z,6.30
2018-12-01T02:52:59.811Z,6.20
2018-12-01T02:55:28.712Z,6.20
2018-12-01T02:57:57.411Z,6.10
2018-12-01T03:00:26.183Z,6.10
2018-12-01T03:02:54.917Z,6.10
2018-12-01T03:05:24.227Z,6.00
2018-12-01T03:07:53.362Z,6.00
2018-12-01T03:10:22.516Z,6.00
2018-12-01T03:12:53.070Z,6.00
2018-12-01T03:15:21.925Z,6.00
2018-12-01T03:17:51.367Z,6.00
2018-12-01T03:20:20.150Z,6.10
2018-12-01T03:22:48.837Z,6.10
2018-12-01T03:25:24.354Z,6.20
2018-12-01T03:27:54.456Z,6.20
2018-12-01T03:30:25.141Z,6.20
2018-12-01T03:32:54.647Z,6.10
2018-12-01T03:35:24.272Z,6.20
2018-12-01T03:37:53.040Z,6.10
2018-12-01T03:40:22.464Z,6.10
2018-12-01T03:42:52.725Z,6.00
2018-12-01T03:45:22.355Z,6.00
2018-12-01T03:47:51.067Z,6.00
2018-12-01T03:50:24.176Z,5.80
2018-12-01T03:52:56.025Z,5.80
2018-12-01T03:55:33.032Z,5.70
2018-12-01T03:58:02.254Z,5.70
2018-12-01T04:00:34.639Z,5.80
2018-12-01T04:03:04.370Z,5.70
2018-12-01T04:05:33.202Z,5.70
2018-12-01T04:08:01.951Z,5.80
2018-12-01T04:10:30.669Z,5.70
2018-12-01T04:12:59.453Z,5.70
2018-12-01T04:15:28.203Z,5.80
2018-12-01T04:17:56.937Z,5.80
2018-12-01T04:20:25.718Z,5.80
2018-12-01T04:22:54.437Z,5.80
2018-12-01T04:25:23.322Z,5.80
2018-12-01T04:27:52.201Z,5.90
2018-12-01T04:30:21.919Z,5.90
2018-12-01T04:32:50.654Z,5.90
2018-12-01T04:35:20.212Z,5.80
2018-12-01T04:37:51.456Z,5.90
2018-12-01T04:40:20.271Z,5.90
2018-12-01T04:42:49.241Z,6.00
2018-12-01T04:45:18.212Z,5.90
2018-12-01T04:47:46.975Z,5.90
2018-12-01T04:50:16.559Z,5.90
2018-12-01T04:52:46.059Z,5.90
2018-12-01T04:55:15.942Z,5.80
2018-12-01T04:57:44.668Z,5.80
2018-12-01T05:00:18.049Z,5.70
2018-12-01T05:02:46.744Z,5.70
2018-12-01T05:05:17.522Z,5.70
2018-12-01T05:07:46.291Z,5.70
2018-12-01T05:10:15.685Z,5.70
2018-12-01T05:12:44.393Z,5.80
2018-12-01T05:15:15.956Z,5.80
2018-12-01T05:17:44.865Z,5.70
2018-12-01T05:20:27.999Z,5.70
2018-12-01T05:22:56.670Z,5.70
2018-12-01T05:25:25.384Z,5.70
2018-12-01T05:27:54.078Z,5.70
2018-12-01T05:30:22.877Z,5.80
2018-12-01T05:32:51.547Z,5.80
2018-12-01T05:35:21.285Z,5.80
2018-12-01T05:37:49.979Z,5.80
2018-12-01T05:40:18.715Z,5.70
2018-12-01T05:42:47.370Z,5.60
2018-12-01T05:45:17.247Z,5.60
2018-12-01T05:47:45.960Z,5.50
2018-12-01T05:50:15.664Z,5.50
2018-12-01T05:52:44.312Z,5.50
2018-12-01T05:55:13.166Z,5.50
2018-12-01T05:57:41.833Z,5.50
2018-12-01T06:00:13.815Z,5.50
2018-12-01T06:02:42.510Z,5.60
2018-12-01T06:05:11.746Z,5.60
2018-12-01T06:07:41.198Z,5.60
2018-12-01T06:10:12.856Z,5.50
2018-12-01T06:12:41.587Z,5.50
2018-12-01T06:15:11.448Z,5.50
2018-12-01T06:17:40.159Z,5.50
2018-12-01T06:20:11.661Z,5.50
2018-12-01T06:22:40.347Z,5.40
2018-12-01T06:25:10.534Z,5.40
2018-12-01T06:27:39.269Z,5.30
2018-12-01T06:30:14.064Z,5.30
2018-12-01T06:32:42.808Z,5.30
2018-12-01T06:35:11.536Z,5.20
2018-12-01T06:37:40.338Z,5.20
2018-12-01T06:40:12.087Z,5.20
2018-12-01T06:42:40.029Z,5.10
2018-12-01T06:45:10.114Z,5.10
2018-12-01T06:47:38.902Z,5.10
2018-12-01T06:50:15.281Z,5.00
2018-12-01T06:52:44.003Z,5.00
2018-12-01T06:55:13.447Z,5.00
2018-12-01T06:57:42.615Z,5.00
2018-12-01T07:00:12.677Z,5.00
2018-12-01T07:02:41.716Z,5.00
2018-12-01T07:05:11.476Z,5.00
2018-12-01T07:07:40.163Z,4.90
2018-12-01T07:10:10.341Z,4.90
2018-12-01T07:12:39.264Z,4.90
2018-12-01T07:15:10.055Z,4.90
2018-12-01T07:17:38.769Z,4.90
2018-12-01T07:20:08.567Z,4.90
2018-12-01T07:22:37.231Z,4.90
2018-12-01T07:25:06.774Z,4.90
2018-12-01T07:27:35.464Z,4.90
2018-12-01T07:30:05.750Z,5.00
2018-12-01T07:32:34.426Z,5.00
2018-12-01T07:35:03.113Z,5.00
2018-12-01T07:37:31.835Z,5.00
2018-12-01T07:40:00.500Z,5.00
2018-12-01T07:42:29.309Z,5.10
2018-12-01T07:44:57.992Z,5.10
2018-12-01T07:47:28.197Z,5.20
2018-12-01T07:49:56.851Z,5.30
2018-12-01T07:52:25.479Z,5.40
2018-12-01T07:54:54.143Z,5.50
2018-12-01T07:57:22.831Z,5.60
2018-12-01T07:59:51.467Z,5.80
2018-12-01T08:02:20.135Z,5.90
2018-12-01T08:04:48.848Z,6.00
2018-12-01T08:07:17.573Z,6.20
2018-12-01T08:09:46.243Z,6.20
2018-12-01T08:12:14.931Z,6.30
2018-12-01T08:14:43.599Z,6.30
2018-12-01T08:17:12.310Z,6.40
2018-12-01T08:19:41.022Z,6.60
2018-12-01T08:22:09.716Z,6.60
2018-12-01T08:24:38.704Z,6.70
2018-12-01T08:27:07.348Z,6.80
2018-12-01T08:29:36.000Z,6.90
2018-12-01T08:32:05.263Z,7.00
2018-12-01T08:34:33.932Z,7.10
2018-12-01T08:37:02.606Z,7.30
2018-12-01T08:39:31.595Z,7.40
2018-12-01T08:42:00.307Z,7.70
2018-12-01T08:44:28.981Z,7.80
2018-12-01T08:46:57.652Z,8.00
2018-12-01T08:49:26.367Z,8.20
2018-12-01T08:51:55.159Z,8.40
2018-12-01T08:54:23.874Z,8.60
2018-12-01T08:56:52.554Z,8.70
2018-12-01T08:59:21.203Z,8.80
2018-12-01T09:01:49.906Z,8.80
2018-12-01T09:04:20.981Z,8.80
2018-12-01T09:06:49.759Z,8.90
2018-12-01T09:09:18.507Z,9.00
2018-12-01T09:11:47.290Z,9.10
2018-12-01T09:14:16.101Z,9.20
2018-12-01T09:16:46.223Z,9.30
2018-12-01T09:19:15.899Z,9.50
2018-12-01T09:21:44.601Z,9.60
2018-12-01T09:24:13.251Z,9.80
2018-12-01T09:26:41.911Z,9.90
2018-12-01T09:29:10.572Z,10.00
2018-12-01T09:31:39.243Z,10.20
2018-12-01T09:34:08.590Z,10.30
2018-12-01T09:36:37.253Z,10.50
2018-12-01T09:39:07.999Z,10.60
2018-12-01T09:41:36.734Z,10.60
2018-12-01T09:44:05.467Z,10.70
2018-12-01T09:46:34.191Z,10.70
2018-12-01T09:49:02.883Z,10.70
2018-12-01T09:51:31.616Z,10.80
2018-12-01T09:54:00.280Z,10.80
2018-12-01T09:56:28.915Z,10.80
2018-12-01T09:58:57.583Z,10.80
2018-12-01T10:01:26.248Z,10.80
2018-12-01T10:03:54.899Z,10.80
2018-12-01T10:06:23.595Z,11.00
2018-12-01T10:08:52.319Z,11.10
2018-12-01T10:11:20.991Z,11.30
2018-12-01T10:13:49.655Z,11.40
2018-12-01T10:16:18.364Z,11.60
2018-12-01T10:18:47.071Z,11.70
2018-12-01T10:21:15.741Z,11.90
2018-12-01T10:23:44.450Z,12.10
2018-12-01T10:26:13.146Z,12.30
2018-12-01T10:28:41.805Z,12.50
2018-12-01T10:31:10.533Z,12.60
2018-12-01T10:33:39.249Z,12.80
2018-12-01T10:36:07.883Z,13.00
2018-12-01T10:38:36.655Z,13.20
2018-12-01T10:41:05.392Z,13.40
2018-12-01T10:43:34.075Z,13.30
2018-12-01T10:46:02.995Z,13.40
2018-12-01T10:48:31.695Z,13.40
2018-12-01T10:51:00.999Z,13.50
2018-12-01T10:53:29.715Z,13.50
2018-12-01T10:55:59.389Z,13.60
2018-12-01T10:58:28.115Z,13.70
2018-12-01T11:01:02.120Z,13.90
2018-12-01T11:03:36.239Z,14.00
2018-12-01T11:06:08.899Z,14.10
2018-12-01T11:08:37.661Z,14.10
2018-12-01T11:11:06.532Z,14.10
2018-12-01T11:13:35.274Z,14.10
2018-12-01T11:16:04.116Z,14.10
2018-12-01T11:18:32.799Z,14.10
2018-12-01T11:21:01.510Z,14.10
2018-12-01T11:23:30.278Z,13.90
2018-12-01T11:25:58.968Z,13.90
2018-12-01T11:28:27.782Z,13.90
2018-12-01T11:30:56.507Z,13.90
2018-12-01T11:33:25.195Z,13.90
2018-12-01T11:35:54.078Z,13.80
2018-12-01T11:38:22.767Z,13.80
2018-12-01T11:40:51.481Z,13.80
2018-12-01T11:43:20.199Z,13.80
2018-12-01T11:45:48.930Z,13.80
2018-12-01T11:48:17.651Z,13.80
2018-12-01T11:50:46.405Z,13.90
2018-12-01T11:53:15.298Z,13.90
2018-12-01T11:55:44.029Z,13.90
2018-12-01T11:58:12.775Z,14.00
2018-12-01T12:00:41.439Z,14.00
2018-12-01T12:03:10.320Z,14.00
2018-12-01T12:05:39.099Z,13.90
2018-12-01T12:08:26.535Z,14.00
2018-12-01T12:10:55.639Z,14.00
2018-12-01T12:13:25.602Z,14.00
2018-12-01T12:15:54.411Z,14.00
2018-12-01T12:18:23.272Z,14.00
2018-12-01T12:20:51.995Z,14.00
2018-12-01T12:23:20.627Z,13.90
2018-12-01T12:25:49.360Z,13.90
2018-12-01T12:28:18.090Z,13.80
2018-12-01T12:30:46.787Z,13.80
2018-12-01T12:33:15.500Z,13.70
2018-12-01T12:35:44.139Z,13.70
2018-12-01T12:38:12.802Z,13.60
2018-12-01T12:40:41.503Z,13.60
2018-12-01T12:43:11.131Z,13.60
2018-12-01T12:45:39.783Z,13.60
2018-12-01T12:48:09.128Z,13.60
2018-12-01T12:50:37.767Z,13.60
2018-12-01T12:53:06.514Z,13.70
2018-12-01T12:55:35.226Z,13.70
2018-12-01T12:58:03.984Z,13.70
2018-12-01T13:00:32.666Z,13.80
2018-12-01T13:03:03.858Z,13.80
2018-12-01T13:05:34.902Z,13.80
2018-12-01T13:08:03.774Z,13.90
2018-12-01T13:10:32.499Z,13.90
2018-12-01T13:13:01.406Z,13.90
2018-12-01T13:15:36.770Z,13.90
2018-12-01T13:18:08.488Z,13.90
2018-12-01T13:20:37.173Z,13.90
2018-12-01T13:23:06.314Z,13.90
2018-12-01T13:25:35.023Z,13.90
2018-12-01T13:28:08.510Z,13.90
2018-12-01T13:30:44.354Z,13.90
2018-12-01T13:33:13.007Z,13.90
2018-12-01T13:35:41.724Z,13.80
2018-12-01T13:38:10.424Z,13.90
2018-12-01T13:40:39.328Z,13.90
2018-12-01T13:43:08.098Z,13.90
2018-12-01T13:45:36.919Z,13.90
2018-12-01T13:48:06.139Z,13.90
2018-12-01T13:50:34.907Z,13.90
2018-12-01T13:53:05.263Z,13.90
2018-12-01T13:55:34.115Z,13.90
2018-12-01T13:58:02.813Z,13.90
2018-12-01T14:00:31.527Z,13.90
2018-12-01T14:03:00.308Z,13.80
2018-12-01T14:05:29.047Z,13.80
2018-12-01T14:07:57.732Z,13.80
2018-12-01T14:10:27.585Z,13.80
2018-12-01T14:13:00.726Z,13.80
2018-12-01T14:15:29.439Z,13.70
2018-12-01T14:17:58.348Z,13.70
2018-12-01T14:20:27.075Z,13.70
2018-12-01T14:22:55.759Z,13.70
2018-12-01T14:25:24.455Z,13.70
2018-12-01T14:27:57.212Z,13.60
2018-12-01T14:30:25.975Z,13.60
2018-12-01T14:32:54.712Z,13.50
2018-12-01T14:35:31.229Z,13.50
2018-12-01T14:38:07.741Z,13.50
2018-12-01T14:40:37.463Z,13.40
2018-12-01T14:43:06.239Z,13.40
2018-12-01T14:45:34.958Z,13.30
2018-12-01T14:48:03.655Z,13.20
2018-12-01T14:50:32.347Z,13.10
2018-12-01T14:53:00.987Z,13.10
2018-12-01T14:55:29.674Z,13.10
2018-12-01T14:57:58.305Z,13.10
2018-12-01T15:00:27.123Z,13.00
2018-12-01T15:02:56.493Z,13.00
2018-12-01T15:05:26.040Z,13.00
2018-12-01T15:07:54.709Z,13.00
2018-12-01T15:10:27.686Z,12.90
2018-12-01T15:12:56.380Z,12.90
2018-12-01T15:15:26.943Z,12.80
2018-12-01T15:17:55.624Z,12.70
2018-12-01T15:20:25.335Z,12.70
2018-12-01T15:22:55.104Z,12.60
2018-12-01T15:25:25.938Z,12.60
2018-12-01T15:27:54.648Z,12.50
2018-12-01T15:30:25.891Z,12.40
2018-12-01T15:33:09.976Z,12.30
2018-12-01T15:35:38.947Z,12.30
2018-12-01T15:38:08.616Z,12.20
2018-12-01T15:40:38.177Z,12.10
2018-12-01T15:43:06.967Z,12.00
2018-12-01T15:45:35.662Z,11.90
2018-12-01T15:48:04.387Z,11.90
2018-12-01T15:50:33.415Z,11.80
2018-12-01T15:53:02.139Z,11.60
2018-12-01T15:55:30.863Z,11.50
2018-12-01T15:57:59.533Z,11.40
2018-12-01T16:00:28.635Z,11.30
2018-12-01T16:02:57.288Z,11.30
2018-12-01T16:05:26.011Z,11.10
2018-12-01T16:07:57.588Z,10.90
2018-12-01T16:10:26.603Z,10.80
2018-12-01T16:13:00.051Z,10.70
2018-12-01T16:15:36.050Z,10.60
2018-12-01T16:18:05.455Z,10.50
2018-12-01T16:20:34.243Z,10.40
2018-12-01T16:23:02.911Z,10.40
2018-12-01T16:25:31.598Z,10.20
2018-12-01T16:28:00.239Z,10.20
2018-12-01T16:30:31.033Z,10.20
2018-12-01T16:33:02.976Z,10.00
2018-12-01T16:35:31.629Z,9.90
2018-12-01T16:38:00.368Z,9.80
2018-12-01T16:40:32.508Z,9.70
2018-12-01T16:43:03.175Z,9.60
2018-12-01T16:45:31.863Z,9.60
2018-12-01T16:48:00.571Z,9.50
2018-12-01T16:50:29.254Z,9.40
2018-12-01T16:52:58.052Z,9.30
2018-12-01T16:55:26.791Z,9.20
2018-12-01T16:57:55.499Z,9.10
2018-12-01T17:00:24.156Z,9.10
2018-12-01T17:02:54.211Z,9.10
2018-12-01T17:05:24.392Z,9.10
2018-12-01T17:07:53.594Z,9.10
2018-12-01T17:10:22.640Z,9.10
2018-12-01T17:12:53.515Z,8.90
2018-12-01T17:15:22.511Z,8.80
2018-12-01T17:17:51.219Z,8.60
2018-12-01T17:20:20.088Z,8.60
2018-12-01T17:22:51.817Z,8.60
2018-12-01T17:25:22.322Z,8.50
2018-12-01T17:27:54.912Z,8.50
2018-12-01T17:30:28.618Z,8.50
2018-12-01T17:32:58.532Z,8.40
2018-12-01T17:35:29.408Z,8.30
2018-12-01T17:38:02.211Z,8.30
2018-12-01T17:41:08.317Z,8.20
2018-12-01T17:43:47.544Z,8.20
2018-12-01T17:46:16.364Z,8.10
2018-12-01T17:48:45.265Z,8.10
2018-12-01T17:51:13.947Z,8.10
2018-12-01T17:53:44.308Z,8.10
2018-12-01T17:56:12.985Z,8.00
2018-12-01T17:58:41.842Z,8.10
2018-12-01T18:01:10.557Z,8.10
2018-12-01T18:03:39.340Z,8.10
2018-12-01T18:06:10.583Z,8.10
2018-12-01T18:08:39.331Z,8.00
2018-12-01T18:11:08.794Z,8.00
2018-12-01T18:13:37.527Z,8.00
2018-12-01T18:16:06.973Z,8.00
2018-12-01T18:18:35.723Z,8.00
2018-12-01T18:21:04.617Z,8.00
2018-12-01T18:23:33.381Z,8.00
2018-12-01T18:26:02.056Z,8.00
2018-12-01T18:28:41.574Z,8.00
2018-12-01T18:31:14.322Z,8.10
2018-12-01T18:33:44.408Z,8.10
2018-12-01T18:36:14.183Z,8.10
2018-12-01T18:38:44.544Z,8.10
2018-12-01T18:41:13.241Z,8.00
2018-12-01T18:43:41.931Z,8.00
2018-12-01T18:46:13.422Z,8.00
2018-12-01T18:48:42.257Z,8.00
2018-12-01T18:51:10.979Z,8.10
2018-12-01T18:53:39.642Z,8.10
2018-12-01T18:56:08.454Z,8.10
2018-12-01T18:58:37.135Z,8.10
2018-12-01T19:01:07.383Z,8.10
2018-12-01T19:03:36.856Z,8.10
2018-12-01T19:06:05.962Z,8.10
2018-12-01T19:08:34.636Z,8.00
2018-12-01T19:11:03.376Z,8.00
2018-12-01T19:13:32.061Z,8.00
2018-12-01T19:16:00.716Z,8.00
2018-12-01T19:18:29.371Z,8.10
2018-12-01T19:20:58.031Z,8.10
2018-12-01T19:23:26.687Z,8.10
2018-12-01T19:25:55.398Z,8.10
2018-12-01T19:28:24.105Z,8.10
2018-12-01T19:30:52.790Z,8.00
2018-12-01T19:33:22.944Z,8.10
2018-12-01T19:35:52.862Z,8.10
2018-12-01T19:38:23.287Z,8.10
2018-12-01T19:40:52.023Z,8.10
2018-12-01T19:43:20.743Z,8.00
2018-12-01T19:45:49.398Z,8.00
2018-12-01T19:48:18.067Z,8.00
2018-12-01T19:50:46.773Z,8.00
2018-12-01T19:53:16.461Z,8.00
2018-12-01T19:55:46.436Z,7.90
2018-12-01T19:58:17.459Z,7.80
2018-12-01T20:00:48.094Z,7.80
2018-12-01T20:03:18.295Z,7.80
2018-12-01T20:05:46.943Z,7.70
2018-12-01T20:08:16.627Z,7.70
2018-12-01T20:10:47.586Z,7.70
2018-12-01T20:13:20.794Z,7.70
2018-12-01T20:15:51.472Z,7.70
2018-12-01T20:18:21.803Z,7.70
2018-12-01T20:20:50.511Z,7.70
2018-12-01T20:23:19.170Z,7.70
2018-12-01T20:25:49.310Z,7.70
2018-12-01T20:28:17.943Z,7.60
2018-12-01T20:30:47.371Z,7.60
2018-12-01T20:33:16.285Z,7.60
2018-12-01T20:35:52.871Z,7.60
2018-12-01T20:38:46.599Z,7.60
2018-12-01T20:41:15.326Z,7.60
2018-12-01T20:43:44.043Z,7.60
2018-12-01T20:46:12.724Z,7.50
2018-12-01T20:48:41.475Z,7.50
2018-12-01T20:51:10.184Z,7.50
2018-12-01T20:53:38.851Z,7.40
2018-12-01T20:56:18.688Z,7.30
2018-12-01T20:58:48.338Z,7.30
2018-12-01T21:01:17.009Z,7.30
2018-12-01T21:03:45.694Z,7.30
2018-12-01T21:06:14.383Z,7.30
2018-12-01T21:08:43.031Z,7.30
2018-12-01T21:11:13.251Z,7.30
2018-12-01T21:13:41.907Z,7.30
2018-12-01T21:16:10.599Z,7.30
2018-12-01T21:18:39.263Z,7.20
2018-12-01T21:21:07.938Z,7.20
2018-12-01T21:23:36.586Z,7.20
2018-12-01T21:26:05.421Z,7.20
2018-12-01T21:28:34.087Z,7.20
2018-12-01T21:31:02.751Z,7.20
2018-12-01T21:33:32.743Z,7.20
2018-12-01T21:36:01.462Z,7.10
2018-12-01T21:38:30.135Z,7.10
2018-12-01T21:40:58.843Z,7.10
2018-12-01T21:43:27.541Z,7.10
2018-12-01T21:45:56.203Z,7.10
2018-12-01T21:48:24.847Z,7.10
2018-12-01T21:50:53.542Z,7.10
2018-12-01T21:53:24.520Z,7.10
2018-12-01T21:55:53.228Z,7.10
2018-12-01T21:58:21.979Z,7.00
2018-12-01T22:00:54.014Z,7.00
2018-12-01T22:03:22.669Z,6.90
2018-12-01T22:05:53.758Z,7.00
2018-12-01T22:08:22.438Z,7.00
2018-12-01T22:10:59.423Z,7.00
2018-12-01T22:13:28.167Z,7.00
2018-12-01T22:15:56.915Z,7.00
2018-12-01T22:18:26.003Z,7.00
2018-12-01T22:20:54.727Z,7.00
2018-12-01T22:23:23.391Z,6.90
2018-12-01T22:25:52.087Z,6.90
2018-12-01T22:28:20.755Z,6.90
2018-12-01T22:30:50.776Z,6.90
2018-12-01T22:33:22.823Z,6.90
2018-12-01T22:35:51.494Z,6.80
2018-12-01T22:38:20.173Z,6.70
2018-12-01T22:40:48.863Z,6.70
2018-12-01T22:43:17.611Z,6.80
2018-12-01T22:45:46.282Z,6.70
2018-12-01T22:48:18.395Z,6.60
2018-12-01T22:50:48.646Z,6.60
2018-12-01T22:53:17.348Z,6.70
2018-12-01T22:55:46.527Z,6.70
2018-12-01T22:58:16.383Z,6.70
2018-12-01T23:00:48.979Z,6.70
2018-12-01T23:03:17.900Z,6.70
2018-12-01T23:05:46.656Z,6.70
2018-12-01T23:08:16.558Z,6.70
2018-12-01T23:10:45.336Z,6.80
2018-12-01T23:13:13.983Z,6.80
2018-12-01T23:15:42.706Z,6.80
2018-12-01T23:18:13.507Z,6.80
2018-12-01T23:20:43.423Z,6.90
2018-12-01T23:23:12.187Z,6.90
2018-12-01T23:25:41.053Z,6.90
2018-12-01T23:28:09.779Z,7.00
2018-12-01T23:30:39.383Z,7.00
2018-12-01T23:33:11.468Z,7.00
2018-12-01T23:35:40.583Z,7.00
2018-12-01T23:38:09.335Z,7.00
2018-12-01T23:40:39.173Z,7.10
2018-12-01T23:43:07.855Z,7.10
2018-12-01T23:45:37.999Z,7.20
2018-12-01T23:48:06.783Z,7.20
2018-12-01T23:50:35.529Z,7.20
2018-12-01T23:53:08.350Z,7.20
2018-12-01T23:55:37.055Z,7.20
2018-12-01T23:58:05.923Z,7.20
